空の公差-Tolerance-

航空写真家 瀬尾 央(せお ひろし)氏による月刊「航空ファン」の連載記事、『 Light & Flight 』に中学生の頃出会い、触発され、写真撮影とプロペラ単発機での飛行を趣味として、空の写真、空からの写真を撮り続けています。 2004年には自費出版の写真集「空の公差-Tolerance-」(エアワークス刊,ISBN9784902113037)を作りました。

2006年04月

No Flight Today

なんなのか飛びに行こうとおもってたけど、テンション低い。
朝、S師匠から電話。名古屋にいるらしい。

c3997a3a.jpg

気に入ってたこの看板。出張先で何度か飛んだクラブのもの
画面右に曳航機とグライダーが写ってるはずだが・・・


04/30 16:07 RJTT 300707Z 20021G31KT 9999
FEW025 BKN/// 21/14 Q1004 RMK 1CU025 A2966=

矢祭山の桜

4/22の銀塩写真。

4/22に載せた三枚目の谷間の桜は、矢祭山駅付近と判明。
久慈川にかかる赤い橋は『あゆのつり橋』というらしい。
これからはつつじも見頃だそうだ。

3650d6f2.jpg
 1eb637ed.jpg

谷間に久慈川、国道、水郡線が寄り添う

【リンク】奥久慈県立自然公園矢祭山(福島県矢祭町)の観光案内

アッシュ&もえぎ

某Tハンズで台紙を入手。
紙の種類も色もなんだか減っていてお気に入りだったものがない。
さて、これをどうするか・・・

a914d163.jpg

ひきたつように紙はひかえめ

そらいろのかさ

雨上がりの国立へ。

b5c6bca5.jpg

雨上がりの駅前
773c0b13.jpg

新緑が目にしみる
e32bae64.jpg

あわてて買った傘も使わずじまい


04/25 13:00 RJTF 250400Z 15008KT 9999 -SHRA
BKN020 11/08 Q1005 RETS RMK 5CU020 A2969=

花吹雪

柴田淳の新曲のタイトル。

ヒサビサの新曲でココロにしみます。是非ともオススメ。
しばじゅんの歌は下の写真のようなイメージ?

c9e400f3.jpg

手前から光を当てると・・・

985236b4.jpg

10分後のシルエット・・・

大利根→RJSF 1110-1224 (1+14)ほか

大利根→RJSF(福島) 1110-1224 (1+14) A150L
RJSF→大利根 1351-1455( 1+04) A150L
大利根LCL 1715-1750 (0+35) R172K


前日のL-TAF・・・

04/21 18:00RJSF 210900Z 211812 30012KT 9999
FEW030 TEMPO 0006 33015G25KT=

・・・出発前のMETARを見て一安心・・・

04/22 10:00 RJSF 220100Z 31011KT 9999
FEW030 SCT040 09/01 Q1007 RMK 1CU030 4CU040 A2974=

桜を撮りながら福島へ。
水戸くらいまでは平地の桜は終わりつつあるようだ。
標高の高いところ、大子と福島空港の水郡線沿いを探す。

JALのCRJがSOUMAに12:13とのことで、ファイナルより西側へ。
視程がいいのでかなり前からインサイト。やっと進入できると思ったら・・・
アシアナの出発便に重なり「ABUKUMA-Point」でホールド。
「日本の空港」にも航空図にも記載がないのでRADIOに聞くと空港の
南7.3DMEとのこと。

56a61efa.jpg

風は左からバリアブル、max22ノット、min5ノット(!?)

34a30fdb.jpg

一応の証拠写真
他の外来機はマリブ2機、アロー、ムーニーみんな引込脚


帰りも山伝いに。行きには見逃した良い景色に遭遇。
寄り道しつつ戻るが追い風にも助けられて1時間+αで大利根着。
その後大利根でローカル。
師匠をゴーアラウンドさせてしまった・・・申し訳ありません。

32f0932a.jpg

塙?駅前の見事な桜。正確な位置はGPSで要確認・・・

発見と発明

「発見と発明は違う」
ある弁理士さんからの書類にあった言葉。

3fb2ec86.jpg

朝。雲は流れるがまだそんなに風はつよくない

04/20 15:30 RJTT200630Z 19026G38KT 9999
FEW030 18/10 Q2992 RMK 1CU030 A2930=

画像評価?

社外でセミナー。

いやはやアナログv.s.デジタル。
カメラそのものではなくてアナログな画像をどうやってデジタル(数式)で?

4828b5c1.jpg

もやもやなのはやはり黄砂?

e279c29c.jpg

フーリエ変換の説明スライド・・・数式がないほうがわかりにくい・・・


4/19 08:00 RJTT 182300Z 16006KT 050V200 6000
NSC 17/09 Q1021 RMK A3016=

画像評価

レンズの画像評価に使えそうな花壇発見。

acbecc69.jpg

ディストーションも色も・・・

春三景

手遅れ気味のメーリングリストに気がつく・・・
     ・・・あーぁパラジャンパイロットへの道がまたもや・・・
    N教官、せっかく名前を挙げていただいたのに申し訳ありません。


c51d6b65.jpg

風がつよい
4d0f570d.jpg

いたるところ春の花々
2c362643.jpg

庭の池に何やら大発生のおたまじゃくし200匹以上



前日のこんなL-TAF(24時間後までの予報)や、

04/14 18:00 RJAA 140900Z 141812 03013KT 9999
BKN015 BKN035 TEMPO 0006 04019G30KT=

朝のこんなMETARを見ていると飛行場まで行けないや・・・・

04/15 09:03 RJAA 150003Z 03021G36KT 9999
SCT030 BKN/// 10/02 Q1023 RMK 4CU030 A3023=
記事検索
月別アーカイブ
livedoor プロフィール
タグクラウド
QRコード
QRコード
  • ライブドアブログ